Aviation Digital Data Service (ADDS)

Output produced by METARs form (0437 UTC 29 July 2014)
found at http://www.aviationweather.gov/adds/metars/
 
KLNS 290353Z AUTO 30005KT 10SM SCT080 BKN110 18/17 A2981 RMK AO2 SLP092 T01780167
KLNS 290253Z 30005KT 10SM OVC110 18/17 A2980 RMK AO2 SLP090 60001 T01780167 51024
KLNS 290153Z 29006KT 10SM OVC095 18/17 A2979 RMK AO2 SLP085 T01780167
KLNS 290053Z 29007KT 10SM CLR 18/17 A2975 RMK AO2 RAE11 SLP071 P0001 T01780167
KLNS 282353Z 29006KT 6SM -RA BR FEW070 SCT080 OVC100 18/17 A2973 RMK AO2 SLP066 P0004 60036 T01830167 10267 20172 51026
KLNS 282253Z 32009KT 4SM RA BR FEW033 BKN060 OVC090 18/16 A2971 RMK AO2 PK WND 32033/2203 RAB05 SLP059 P0032 T01830161
KLNS 282233Z 32010KT 1 1/4SM +RA BR SCT035 BKN047 OVC055 18/17 A2971 RMK AO2 PK WND 32033/2203 RAB05 P0020 T01780167
KLNS 282226Z 31010G19KT 2SM +RA BR SCT037 BKN047 OVC060 18/16 A2971 RMK AO2 PK WND 32033/2203 RAB05 P0014 T01780161
KLNS 282211Z 33016G33KT 1 3/4SM +RA FEW037 BKN047 OVC080 18/16 A2970 RMK AO2 PK WND 32033/2203 RAB05 PRESRR P0005 T01830156
KLNS 282153Z 30009KT 10SM BKN070 BKN090 OVC110 24/15 A2966 RMK AO2 SLP040 T02390150
KLNS 282053Z 29018G24KT 10SM FEW055 BKN070 BKN090 26/15 A2964 RMK AO2 SLP034 T02560150 53010
KLNS 281953Z 29013G25KT 10SM FEW060 26/15 A2963 RMK AO2 PK WND 29027/1911 SLP029 T02610150
KLNS 281853Z 28016G23KT 10SM FEW075 BKN095 24/14 A2962 RMK AO2 PK WND 28026/1813 SLP026 T02440139
KLNS 281753Z 28020G25KT 10SM FEW110 26/14 A2961 RMK AO2 PK WND 28027/1732 SLP025 T02560144 10261 20200 58003
KLNS 281653Z 28016G23KT 10SM SCT040 26/16 A2962 RMK AO2 SLP025 T02560161
KLNS 281553Z 29014KT 10SM FEW038 24/17 A2962 RMK AO2 PK WND 30026/1454 SLP028 T02440167
KLNS 281453Z 29018G25KT 10SM SCT034 BKN110 23/17 A2962 RMK AO2 SLP028 T02330167 51010
KLNS 281353Z 28011KT 10SM FEW024 FEW030 OVC047 23/19 A2961 RMK AO2 SLP025 T02330194
KLNS 281303Z 27008KT 6SM BR FEW009 FEW030 22/19 A2961 RMK AO2 T02170194
KLNS 281251Z 26007KT 6SM BR FEW010 SCT014 BKN033 21/19 A2960 RMK AO2 SLP022 T02110194
KLNS 281250Z 26007KT 6SM BR SCT010 SCT013 BKN033 21/19 A2960 RMK AO2
KLNS 281153Z 28006KT 4SM BR OVC006 20/18 A2959 RMK AO2 SLP017 60000 70220 T02000183 10206 20189 53008
KLNS 281125Z 29007KT 3SM BR OVC009 19/18 A2959 RMK AO2 CIG 004V012 T01940183
KLNS 281105Z 30007KT 2SM BR SCT005 OVC011 19/18 A2959 RMK AO2 T01940183
KLNS 281053Z 30007KT 2SM BR BKN005 OVC011 19/18 A2958 RMK AO2 SLP014 T01890183
KLNS 281042Z 30006KT 2SM BR OVC005 19/18 A2958 RMK AO2 T01890183
KLNS 281029Z 28004KT 2SM BR OVC004 19/18 A2957 RMK AO2 CIG 004V009 T01940183
KLNS 281005Z 26005KT 2SM BR OVC005 19/18 A2957 RMK AO2 CIG 004V008 T01940183
KLNS 280953Z 24004KT 3SM BR OVC004 19/18 A2957 RMK AO2 SLP009 T01890183
KLNS 280853Z AUTO 26006KT 6SM BR OVC006 19/19 A2957 RMK AO2 RAB00E11 CIG 004V009 SLP009 P0000 60000 T01940189 56007
KLNS 280836Z AUTO 25006KT 7SM BKN008 19/18 A2956 RMK AO2 RAB00E11 CIG 007V011 P0000 T01940183
KLNS 280753Z AUTO 20003KT 6SM BR SCT004 SCT110 19/18 A2957 RMK AO2 SLP009 T01890183
KLNS 280751Z AUTO 22003KT 6SM BR SCT004 SCT110 19/18 A2957 RMK AO2
KLNS 280741Z AUTO 24003KT 6SM BR BKN004 19/18 A2958 RMK AO2 T01890183
KLNS 280653Z AUTO 00000KT 7SM OVC005 19/18 A2959 RMK AO2 SLP016 T01890183
KLNS 280634Z AUTO 00000KT 8SM BKN005 19/18 A2958 RMK AO2 T01890183
KLNS 280616Z AUTO 00000KT 9SM SCT005 19/18 A2958 RMK AO2 T01890183
KLNS 280553Z AUTO 00000KT 8SM FEW110 19/18 A2958 RMK AO2 RAE10 SLP014 P0001 60220 T01890183 10261 20189 58029
KLNS 280505Z AUTO 00000KT 10SM -RA FEW007 SCT095 BKN110 19/18 A2962 RMK AO2 LTG DSNT SE P0001 T01890183
KLNS 280453Z AUTO 20007KT 5SM RA BR FEW070 SCT095 BKN110 19/18 A2964 RMK AO2 LTG DSNT E AND SE SLP032 P0004 T01940183 403110189
KLNS 280353Z AUTO 16004KT 9SM -RA FEW023 SCT075 BKN095 19/18 A2965 RMK AO2 LTG DSNT S AND SW RAB43 SLP036 P0000 T01890183
KLNS 280253Z AUTO 09004KT 10SM FEW095 19/18 A2967 RMK AO2 LTG DSNT NE-S RAE39 TSE25 SLP044 P0027 60215 T01890178 58003
KLNS 280234Z 05004KT 9SM -RA FEW007 SCT027 BKN060 19/18 A2968 RMK AO2 LTG DSNT E-SW TSE25 P0027 T01940183
KLNS 280231Z 06004KT 7SM VCTS -RA FEW007 BKN027 OVC120 19/18 A2969 RMK AO2 LTG DSNT E-S TSE25 PRESFR P0027 T01940183
KLNS 280216Z 01004KT 3SM TSRA BR FEW007 BKN029 OVC065 19/19 A2972 RMK AO2 LTG DSNT NE-S P0026 T01940189
KLNS 280204Z VRB04KT 1 1/2SM +TSRA BR SCT006 BKN027 OVC060 19/19 A2973 RMK AO2 LTG DSNT ALQDS P0018 T01940189
KLNS 280201Z 21006KT 1 3/4SM +TSRA BR BKN008 BKN027 OVC060 19/18 A2974 RMK AO2 LTG DSNT ALQDS PRESRR P0009 T01940183
KLNS 280158Z 27007KT 2 1/2SM +TSRA BR BKN008 BKN018 OVC060 19/18 A2974 RMK AO2 LTG DSNT ALQDS P0003 T01940183
KLNS 280153Z 02006KT 2 1/2SM +TSRA BR SCT008 BKN031 OVC060 19/19 A2971 RMK AO2 LTG DSNT ALQDS SLP059 P0094 T01940189
KLNS 280136Z 00000KT 2 1/2SM +TSRA BR FEW007 BKN022 OVC065 19/18 A2973 RMK AO2 VIS 1 3/4V3 LTG DSNT ALQDS P0083 T01890183
KLNS 280132Z 08007KT 1 3/4SM +TSRA BR FEW016 OVC022 19/18 A2972 RMK AO2 LTG DSNT ALQDS P0078 T01940183
KLNS 280124Z 36012KT 3/4SM +TSRA BR OVC024 19/19 A2971 RMK AO2 LTG DSNT ALQDS P0074 T01940189
KLNS 280115Z 01008KT 1SM +TSRA BR FEW008 SCT023 OVC029 19/19 A2972 RMK AO2 LTG DSNT ALQDS P0044 T01940189
KLNS 280109Z 29013KT 2 1/2SM +TSRA BR FEW008 SCT024 OVC040 20/19 A2975 RMK AO2 LTG DSNT ALQDS PRESRR P0022 T02000189
KLNS 280053Z 10008KT 1 3/4SM +TSRA BR FEW026 OVC030 20/19 A2970 RMK AO2 LTG DSNT ALQDS RAB00 TSB05 SLP055 P0094 T02000189
KLNS 280046Z 07007KT 1SM +TSRA BR FEW025 BKN030 OVC050 20/19 A2969 RMK AO2 LTG DSNT ALQDS RAB00 TSB05 P0082 T02000189
KLNS 280034Z 30007KT 3/4SM +TSRA BR FEW015 BKN025 OVC033 20/19 A2971 RMK AO2 LTG DSNT ALQDS RAB00 TSB05 P0062 T02000189
KLNS 280027Z 32010KT 1 1/4SM +TSRA BR FEW006 SCT022 OVC031 20/19 A2970 RMK AO2 LTG DSNT ALQDS RAB00 TSB05 P0041 T02000189
KLNS 280015Z 33008G21KT 1 3/4SM +TSRA BR SCT016 BKN023 OVC055 21/18 A2970 RMK AO2 LTG DSNT ALQDS RAB00 TSB05 P0016 T02060183
KLNS 280005Z 32012G18KT 10SM -TSRA FEW018 BKN023 BKN048 23/19 A2969 RMK AO2 LTG DSNT SW-N RAB00 TSB05 P0001 T02330194
KLNS 272353Z 25007KT 10SM VCTS FEW048 SCT055 BKN075 26/23 A2968 RMK AO2 LTG DSNT SW-N RAB07E49 SLP047 P0000 60000 T02610228 10311 20261 55008
KLNS 272320Z 17009KT 10SM -RA FEW055 SCT090 SCT120 27/22 A2967 RMK AO2 LTG DSNT SW-NW RAB07 P0000 T02720217
KLNS 272253Z 19006KT 10SM VCTS FEW045 28/21 A2967 RMK AO2 LTG DSNT W AND NW SLP045 T02830206
KLNS 272153Z 20006KT 10SM FEW060 29/19 A2968 RMK AO2 SLP045 T02890189
KLNS 272053Z 21006KT 10SM FEW060 30/19 A2970 RMK AO2 SLP055 T03000194 58016
KLNS 271953Z 21006KT 10SM SCT050 31/19 A2972 RMK AO2 SLP061 T03060194
KLNS 271853Z 31007KT 10SM FEW050 30/19 A2974 RMK AO2 SLP067 T03000194
KLNS 271753Z 27004KT 10SM SCT042 BKN050 29/19 A2975 RMK AO2 SLP071 T02890194 10294 20233 56015
KLNS 271653Z 30010KT 10SM SCT036 SCT045 28/20 A2976 RMK AO2 SLP074 T02830200